sensor_id;sensor_type;location;lat;lon;timestamp;P1;durP1;ratioP1;P2;durP2;ratioP2
39620;SDS011;25309;48.686;9.170;2023-03-01T00:01:03;16.33;;;10.23;;
39620;SDS011;25309;48.686;9.170;2023-03-01T00:03:32;13.87;;;10.23;;
39620;SDS011;25309;48.686;9.170;2023-03-01T00:05:59;16.53;;;11.07;;
39620;SDS011;25309;48.686;9.170;2023-03-01T00:08:26;15.20;;;11.00;;
39620;SDS011;25309;48.686;9.170;2023-03-01T00:11:00;17.63;;;10.90;;
39620;SDS011;25309;48.686;9.170;2023-03-01T00:13:28;15.43;;;10.20;;
39620;SDS011;25309;48.686;9.170;2023-03-01T00:15:55;16.70;;;10.23;;
39620;SDS011;25309;48.686;9.170;2023-03-01T00:18:23;15.07;;;9.80;;
39620;SDS011;25309;48.686;9.170;2023-03-01T00:20:50;13.90;;;9.97;;
39620;SDS011;25309;48.686;9.170;2023-03-01T00:23:18;14.13;;;9.93;;
39620;SDS011;25309;48.686;9.170;2023-03-01T00:25:45;16.93;;;10.40;;
39620;SDS011;25309;48.686;9.170;2023-03-01T00:28:12;14.67;;;10.20;;
39620;SDS011;25309;48.686;9.170;2023-03-01T00:30:39;14.73;;;10.50;;
39620;SDS011;25309;48.686;9.170;2023-03-01T00:33:06;15.97;;;9.87;;
39620;SDS011;25309;48.686;9.170;2023-03-01T00:35:34;15.27;;;10.23;;
39620;SDS011;25309;48.686;9.170;2023-03-01T00:38:02;15.50;;;10.07;;
39620;SDS011;25309;48.686;9.170;2023-03-01T00:40:31;13.97;;;9.77;;
39620;SDS011;25309;48.686;9.170;2023-03-01T00:42:59;14.60;;;9.30;;
39620;SDS011;25309;48.686;9.170;2023-03-01T00:45:26;16.97;;;10.20;;
39620;SDS011;25309;48.686;9.170;2023-03-01T00:47:53;16.07;;;10.50;;
39620;SDS011;25309;48.686;9.170;2023-03-01T00:50:21;15.97;;;10.47;;
39620;SDS011;25309;48.686;9.170;2023-03-01T00:52:50;15.43;;;10.50;;
39620;SDS011;25309;48.686;9.170;2023-03-01T00:55:18;14.90;;;10.20;;
39620;SDS011;25309;48.686;9.170;2023-03-01T00:57:45;16.13;;;10.13;;
39620;SDS011;25309;48.686;9.170;2023-03-01T01:00:13;16.17;;;10.03;;
39620;SDS011;25309;48.686;9.170;2023-03-01T01:02:40;16.30;;;10.23;;
39620;SDS011;25309;48.686;9.170;2023-03-01T01:05:07;14.97;;;9.80;;
39620;SDS011;25309;48.686;9.170;2023-03-01T01:07:35;14.47;;;9.87;;
39620;SDS011;25309;48.686;9.170;2023-03-01T01:10:04;15.47;;;10.37;;
39620;SDS011;25309;48.686;9.170;2023-03-01T01:12:33;14.63;;;10.10;;
39620;SDS011;25309;48.686;9.170;2023-03-01T01:15:00;15.90;;;10.27;;
39620;SDS011;25309;48.686;9.170;2023-03-01T01:17:27;16.10;;;9.90;;
39620;SDS011;25309;48.686;9.170;2023-03-01T01:19:54;15.53;;;9.83;;
39620;SDS011;25309;48.686;9.170;2023-03-01T01:22:21;14.87;;;9.77;;
39620;SDS011;25309;48.686;9.170;2023-03-01T01:24:48;15.07;;;10.10;;
39620;SDS011;25309;48.686;9.170;2023-03-01T01:27:16;15.73;;;9.93;;
39620;SDS011;25309;48.686;9.170;2023-03-01T01:29:43;15.57;;;9.73;;
39620;SDS011;25309;48.686;9.170;2023-03-01T01:32:10;14.33;;;9.63;;
39620;SDS011;25309;48.686;9.170;2023-03-01T01:34:37;15.90;;;10.30;;
39620;SDS011;25309;48.686;9.170;2023-03-01T01:37:04;16.83;;;9.93;;
39620;SDS011;25309;48.686;9.170;2023-03-01T01:39:34;14.53;;;9.60;;
39620;SDS011;25309;48.686;9.170;2023-03-01T01:42:01;17.30;;;10.43;;
39620;SDS011;25309;48.686;9.170;2023-03-01T01:44:30;15.77;;;10.23;;
39620;SDS011;25309;48.686;9.170;2023-03-01T01:46:57;14.63;;;10.00;;
39620;SDS011;25309;48.686;9.170;2023-03-01T01:49:27;16.57;;;10.30;;
39620;SDS011;25309;48.686;9.170;2023-03-01T01:52:03;16.90;;;10.53;;
39620;SDS011;25309;48.686;9.170;2023-03-01T01:54:38;16.33;;;10.43;;
39620;SDS011;25309;48.686;9.170;2023-03-01T01:57:11;15.17;;;9.87;;
39620;SDS011;25309;48.686;9.170;2023-03-01T01:59:42;15.97;;;10.13;;
39620;SDS011;25309;48.686;9.170;2023-03-01T02:02:12;17.80;;;10.67;;
39620;SDS011;25309;48.686;9.170;2023-03-01T02:04:39;15.43;;;9.80;;
39620;SDS011;25309;48.686;9.170;2023-03-01T02:07:09;16.33;;;10.57;;
39620;SDS011;25309;48.686;9.170;2023-03-01T02:09:42;15.67;;;9.87;;
39620;SDS011;25309;48.686;9.170;2023-03-01T02:12:12;15.33;;;10.17;;
39620;SDS011;25309;48.686;9.170;2023-03-01T02:14:42;16.60;;;10.43;;
39620;SDS011;25309;48.686;9.170;2023-03-01T02:17:09;16.77;;;10.20;;
39620;SDS011;25309;48.686;9.170;2023-03-01T02:19:43;16.13;;;10.30;;
39620;SDS011;25309;48.686;9.170;2023-03-01T02:22:18;16.50;;;10.37;;
39620;SDS011;25309;48.686;9.170;2023-03-01T02:24:51;15.60;;;10.50;;
39620;SDS011;25309;48.686;9.170;2023-03-01T02:27:31;17.20;;;10.83;;
39620;SDS011;25309;48.686;9.170;2023-03-01T02:30:05;17.17;;;10.47;;
39620;SDS011;25309;48.686;9.170;2023-03-01T02:32:34;17.47;;;10.47;;
39620;SDS011;25309;48.686;9.170;2023-03-01T02:35:01;16.53;;;10.57;;
39620;SDS011;25309;48.686;9.170;2023-03-01T02:37:33;15.67;;;10.30;;
39620;SDS011;25309;48.686;9.170;2023-03-01T02:40:03;16.37;;;10.57;;
39620;SDS011;25309;48.686;9.170;2023-03-01T02:42:35;14.87;;;10.17;;
39620;SDS011;25309;48.686;9.170;2023-03-01T02:45:09;17.37;;;11.03;;
39620;SDS011;25309;48.686;9.170;2023-03-01T02:47:36;14.57;;;10.00;;
39620;SDS011;25309;48.686;9.170;2023-03-01T02:50:08;16.27;;;10.50;;
39620;SDS011;25309;48.686;9.170;2023-03-01T02:52:45;18.63;;;11.30;;
39620;SDS011;25309;48.686;9.170;2023-03-01T02:55:18;16.90;;;11.00;;
39620;SDS011;25309;48.686;9.170;2023-03-01T02:57:45;17.07;;;11.10;;
39620;SDS011;25309;48.686;9.170;2023-03-01T03:00:19;17.13;;;11.60;;
39620;SDS011;25309;48.686;9.170;2023-03-01T03:02:50;17.23;;;10.67;;
39620;SDS011;25309;48.686;9.170;2023-03-01T03:05:21;16.77;;;11.13;;
39620;SDS011;25309;48.686;9.170;2023-03-01T03:07:52;17.27;;;11.13;;
39620;SDS011;25309;48.686;9.170;2023-03-01T03:10:20;17.00;;;11.00;;
39620;SDS011;25309;48.686;9.170;2023-03-01T03:12:49;16.87;;;11.23;;
39620;SDS011;25309;48.686;9.170;2023-03-01T03:15:18;17.87;;;11.17;;
39620;SDS011;25309;48.686;9.170;2023-03-01T03:17:47;16.73;;;10.97;;
39620;SDS011;25309;48.686;9.170;2023-03-01T03:20:15;17.67;;;11.03;;
39620;SDS011;25309;48.686;9.170;2023-03-01T03:22:45;19.23;;;11.47;;
39620;SDS011;25309;48.686;9.170;2023-03-01T03:25:13;15.67;;;11.37;;
39620;SDS011;25309;48.686;9.170;2023-03-01T03:27:42;18.17;;;12.13;;
39620;SDS011;25309;48.686;9.170;2023-03-01T03:30:11;20.60;;;12.07;;
39620;SDS011;25309;48.686;9.170;2023-03-01T03:32:41;17.87;;;11.97;;
39620;SDS011;25309;48.686;9.170;2023-03-01T03:35:18;18.00;;;12.27;;
39620;SDS011;25309;48.686;9.170;2023-03-01T03:37:46;19.60;;;11.97;;
39620;SDS011;25309;48.686;9.170;2023-03-01T03:40:29;20.27;;;12.67;;
39620;SDS011;25309;48.686;9.170;2023-03-01T03:42:58;20.50;;;12.93;;
39620;SDS011;25309;48.686;9.170;2023-03-01T03:45:25;19.03;;;12.10;;
39620;SDS011;25309;48.686;9.170;2023-03-01T03:47:53;17.70;;;11.83;;
39620;SDS011;25309;48.686;9.170;2023-03-01T03:50:20;19.10;;;12.73;;
39620;SDS011;25309;48.686;9.170;2023-03-01T03:52:47;19.13;;;12.33;;
39620;SDS011;25309;48.686;9.170;2023-03-01T03:55:14;20.43;;;11.77;;
39620;SDS011;25309;48.686;9.170;2023-03-01T03:57:46;20.03;;;12.83;;
39620;SDS011;25309;48.686;9.170;2023-03-01T04:00:18;19.03;;;13.00;;
39620;SDS011;25309;48.686;9.170;2023-03-01T04:02:47;19.20;;;11.70;;
39620;SDS011;25309;48.686;9.170;2023-03-01T04:05:16;19.60;;;12.50;;
39620;SDS011;25309;48.686;9.170;2023-03-01T04:07:45;19.10;;;11.97;;
39620;SDS011;25309;48.686;9.170;2023-03-01T04:10:12;19.60;;;12.20;;
39620;SDS011;25309;48.686;9.170;2023-03-01T04:12:42;18.33;;;11.73;;
39620;SDS011;25309;48.686;9.170;2023-03-01T04:15:10;18.87;;;12.53;;
39620;SDS011;25309;48.686;9.170;2023-03-01T04:17:40;18.97;;;12.97;;
39620;SDS011;25309;48.686;9.170;2023-03-01T04:20:08;18.87;;;12.13;;
39620;SDS011;25309;48.686;9.170;2023-03-01T04:22:39;19.17;;;12.30;;
39620;SDS011;25309;48.686;9.170;2023-03-01T04:25:07;18.93;;;11.97;;
39620;SDS011;25309;48.686;9.170;2023-03-01T04:27:34;20.13;;;12.70;;
39620;SDS011;25309;48.686;9.170;2023-03-01T04:30:02;19.07;;;12.13;;
39620;SDS011;25309;48.686;9.170;2023-03-01T04:32:29;20.30;;;12.17;;
39620;SDS011;25309;48.686;9.170;2023-03-01T04:34:56;20.07;;;12.30;;
39620;SDS011;25309;48.686;9.170;2023-03-01T04:37:23;18.57;;;11.90;;
39620;SDS011;25309;48.686;9.170;2023-03-01T04:39:52;19.43;;;12.30;;
39620;SDS011;25309;48.686;9.170;2023-03-01T04:42:19;19.07;;;11.90;;
39620;SDS011;25309;48.686;9.170;2023-03-01T04:44:46;19.33;;;12.13;;
39620;SDS011;25309;48.686;9.170;2023-03-01T04:47:14;18.47;;;12.93;;
39620;SDS011;25309;48.686;9.170;2023-03-01T04:49:40;19.77;;;12.43;;
39620;SDS011;25309;48.686;9.170;2023-03-01T04:52:07;20.03;;;12.40;;
39620;SDS011;25309;48.686;9.170;2023-03-01T04:54:35;17.77;;;11.93;;
39620;SDS011;25309;48.686;9.170;2023-03-01T04:57:03;17.83;;;12.27;;
39620;SDS011;25309;48.686;9.170;2023-03-01T04:59:30;19.23;;;12.93;;
39620;SDS011;25309;48.686;9.170;2023-03-01T05:01:57;19.50;;;12.53;;
39620;SDS011;25309;48.686;9.170;2023-03-01T05:04:26;21.37;;;12.90;;
39620;SDS011;25309;48.686;9.170;2023-03-01T05:06:53;22.20;;;13.10;;
39620;SDS011;25309;48.686;9.170;2023-03-01T05:09:20;25.07;;;14.30;;
39620;SDS011;25309;48.686;9.170;2023-03-01T05:11:47;19.53;;;13.63;;
39620;SDS011;25309;48.686;9.170;2023-03-01T05:14:15;18.43;;;12.53;;
39620;SDS011;25309;48.686;9.170;2023-03-01T05:16:42;18.70;;;12.87;;
39620;SDS011;25309;48.686;9.170;2023-03-01T05:19:09;17.73;;;12.53;;
39620;SDS011;25309;48.686;9.170;2023-03-01T05:21:41;19.97;;;13.00;;
39620;SDS011;25309;48.686;9.170;2023-03-01T05:24:27;21.90;;;13.30;;
39620;SDS011;25309;48.686;9.170;2023-03-01T05:26:54;20.20;;;12.70;;
39620;SDS011;25309;48.686;9.170;2023-03-01T05:29:23;18.73;;;12.50;;
39620;SDS011;25309;48.686;9.170;2023-03-01T05:31:51;20.40;;;13.03;;
39620;SDS011;25309;48.686;9.170;2023-03-01T05:34:22;18.87;;;12.37;;
39620;SDS011;25309;48.686;9.170;2023-03-01T05:36:49;22.30;;;13.30;;
39620;SDS011;25309;48.686;9.170;2023-03-01T05:39:19;19.97;;;12.90;;
39620;SDS011;25309;48.686;9.170;2023-03-01T05:41:51;21.50;;;13.60;;
39620;SDS011;25309;48.686;9.170;2023-03-01T05:44:19;19.40;;;12.80;;
39620;SDS011;25309;48.686;9.170;2023-03-01T05:46:48;20.67;;;12.60;;
39620;SDS011;25309;48.686;9.170;2023-03-01T05:49:15;20.20;;;12.63;;
39620;SDS011;25309;48.686;9.170;2023-03-01T05:51:42;20.07;;;13.00;;
39620;SDS011;25309;48.686;9.170;2023-03-01T05:54:13;20.40;;;12.87;;
39620;SDS011;25309;48.686;9.170;2023-03-01T05:56:41;19.97;;;12.83;;
39620;SDS011;25309;48.686;9.170;2023-03-01T05:59:08;20.87;;;13.07;;
39620;SDS011;25309;48.686;9.170;2023-03-01T06:01:35;19.77;;;12.70;;
39620;SDS011;25309;48.686;9.170;2023-03-01T06:04:04;20.33;;;13.27;;
39620;SDS011;25309;48.686;9.170;2023-03-01T06:06:33;19.73;;;13.10;;
39620;SDS011;25309;48.686;9.170;2023-03-01T06:09:00;21.33;;;12.87;;
39620;SDS011;25309;48.686;9.170;2023-03-01T06:11:27;21.30;;;13.37;;
39620;SDS011;25309;48.686;9.170;2023-03-01T06:13:54;22.73;;;13.77;;
39620;SDS011;25309;48.686;9.170;2023-03-01T06:16:21;20.97;;;13.60;;
39620;SDS011;25309;48.686;9.170;2023-03-01T06:18:48;19.70;;;12.77;;
39620;SDS011;25309;48.686;9.170;2023-03-01T06:21:16;20.27;;;13.23;;
39620;SDS011;25309;48.686;9.170;2023-03-01T06:23:43;20.53;;;13.10;;
39620;SDS011;25309;48.686;9.170;2023-03-01T06:26:10;24.13;;;13.93;;
39620;SDS011;25309;48.686;9.170;2023-03-01T06:28:37;20.07;;;13.30;;
39620;SDS011;25309;48.686;9.170;2023-03-01T06:31:04;19.47;;;12.83;;
39620;SDS011;25309;48.686;9.170;2023-03-01T06:33:34;19.80;;;13.17;;
39620;SDS011;25309;48.686;9.170;2023-03-01T06:36:02;21.67;;;12.80;;
39620;SDS011;25309;48.686;9.170;2023-03-01T06:38:31;18.70;;;13.00;;
39620;SDS011;25309;48.686;9.170;2023-03-01T06:40:58;19.47;;;13.17;;
39620;SDS011;25309;48.686;9.170;2023-03-01T06:43:25;18.63;;;13.00;;
39620;SDS011;25309;48.686;9.170;2023-03-01T06:45:52;21.30;;;13.20;;
39620;SDS011;25309;48.686;9.170;2023-03-01T06:48:19;19.10;;;12.87;;
39620;SDS011;25309;48.686;9.170;2023-03-01T06:50:45;24.07;;;13.47;;
39620;SDS011;25309;48.686;9.170;2023-03-01T06:53:13;22.20;;;13.27;;
39620;SDS011;25309;48.686;9.170;2023-03-01T06:55:41;20.70;;;13.30;;
39620;SDS011;25309;48.686;9.170;2023-03-01T06:58:08;23.20;;;13.40;;
39620;SDS011;25309;48.686;9.170;2023-03-01T07:00:36;20.47;;;13.50;;
39620;SDS011;25309;48.686;9.170;2023-03-01T07:03:03;20.50;;;12.80;;
39620;SDS011;25309;48.686;9.170;2023-03-01T07:05:30;23.03;;;14.10;;
39620;SDS011;25309;48.686;9.170;2023-03-01T07:07:57;21.30;;;13.33;;
39620;SDS011;25309;48.686;9.170;2023-03-01T07:10:24;21.33;;;13.27;;
39620;SDS011;25309;48.686;9.170;2023-03-01T07:12:55;22.03;;;14.47;;
39620;SDS011;25309;48.686;9.170;2023-03-01T07:15:22;20.20;;;13.43;;
39620;SDS011;25309;48.686;9.170;2023-03-01T07:17:49;21.50;;;13.27;;
39620;SDS011;25309;48.686;9.170;2023-03-01T07:20:17;20.50;;;13.07;;
39620;SDS011;25309;48.686;9.170;2023-03-01T07:22:45;20.87;;;13.73;;
39620;SDS011;25309;48.686;9.170;2023-03-01T07:25:11;22.40;;;13.80;;
39620;SDS011;25309;48.686;9.170;2023-03-01T07:27:38;25.50;;;14.43;;
39620;SDS011;25309;48.686;9.170;2023-03-01T07:30:07;23.80;;;13.53;;
39620;SDS011;25309;48.686;9.170;2023-03-01T07:32:35;18.93;;;12.97;;
39620;SDS011;25309;48.686;9.170;2023-03-01T07:35:02;22.57;;;13.70;;
39620;SDS011;25309;48.686;9.170;2023-03-01T07:37:30;20.57;;;13.23;;
39620;SDS011;25309;48.686;9.170;2023-03-01T07:39:57;19.93;;;13.60;;
39620;SDS011;25309;48.686;9.170;2023-03-01T07:42:24;20.93;;;13.07;;
39620;SDS011;25309;48.686;9.170;2023-03-01T07:44:50;20.80;;;13.17;;
39620;SDS011;25309;48.686;9.170;2023-03-01T07:47:19;20.10;;;13.33;;
39620;SDS011;25309;48.686;9.170;2023-03-01T07:49:46;21.13;;;13.70;;
39620;SDS011;25309;48.686;9.170;2023-03-01T07:52:13;17.63;;;12.60;;
39620;SDS011;25309;48.686;9.170;2023-03-01T07:54:42;19.53;;;13.53;;
39620;SDS011;25309;48.686;9.170;2023-03-01T07:57:10;20.47;;;13.40;;
39620;SDS011;25309;48.686;9.170;2023-03-01T07:59:37;19.53;;;13.33;;
39620;SDS011;25309;48.686;9.170;2023-03-01T08:02:04;18.77;;;13.00;;
39620;SDS011;25309;48.686;9.170;2023-03-01T08:04:33;20.13;;;12.87;;
39620;SDS011;25309;48.686;9.170;2023-03-01T08:07:00;18.87;;;13.40;;
39620;SDS011;25309;48.686;9.170;2023-03-01T08:09:27;22.13;;;13.93;;
39620;SDS011;25309;48.686;9.170;2023-03-01T08:11:55;16.83;;;12.47;;
39620;SDS011;25309;48.686;9.170;2023-03-01T08:14:23;18.20;;;12.90;;
39620;SDS011;25309;48.686;9.170;2023-03-01T08:16:50;18.87;;;12.73;;
39620;SDS011;25309;48.686;9.170;2023-03-01T08:19:17;21.73;;;13.63;;
39620;SDS011;25309;48.686;9.170;2023-03-01T08:21:46;18.90;;;13.80;;
39620;SDS011;25309;48.686;9.170;2023-03-01T08:24:13;19.50;;;13.60;;
39620;SDS011;25309;48.686;9.170;2023-03-01T08:26:40;22.43;;;13.73;;
39620;SDS011;25309;48.686;9.170;2023-03-01T08:29:07;18.27;;;13.40;;
39620;SDS011;25309;48.686;9.170;2023-03-01T08:31:34;18.00;;;13.73;;
39620;SDS011;25309;48.686;9.170;2023-03-01T08:34:04;21.03;;;14.10;;
39620;SDS011;25309;48.686;9.170;2023-03-01T08:36:35;18.20;;;13.90;;
39620;SDS011;25309;48.686;9.170;2023-03-01T08:39:05;19.93;;;13.40;;
39620;SDS011;25309;48.686;9.170;2023-03-01T08:41:33;18.43;;;13.03;;
39620;SDS011;25309;48.686;9.170;2023-03-01T08:44:00;18.97;;;13.87;;
39620;SDS011;25309;48.686;9.170;2023-03-01T08:46:27;20.83;;;13.80;;
39620;SDS011;25309;48.686;9.170;2023-03-01T08:48:55;18.73;;;13.53;;
39620;SDS011;25309;48.686;9.170;2023-03-01T08:51:22;17.10;;;13.07;;
39620;SDS011;25309;48.686;9.170;2023-03-01T08:53:50;19.53;;;14.13;;
39620;SDS011;25309;48.686;9.170;2023-03-01T08:56:18;18.10;;;13.63;;
39620;SDS011;25309;48.686;9.170;2023-03-01T08:58:45;20.30;;;14.10;;
39620;SDS011;25309;48.686;9.170;2023-03-01T09:01:14;18.17;;;14.00;;
39620;SDS011;25309;48.686;9.170;2023-03-01T09:03:43;20.70;;;14.70;;
39620;SDS011;25309;48.686;9.170;2023-03-01T09:06:10;19.67;;;14.40;;
39620;SDS011;25309;48.686;9.170;2023-03-01T09:08:39;17.27;;;13.63;;
39620;SDS011;25309;48.686;9.170;2023-03-01T09:11:07;18.63;;;13.70;;
39620;SDS011;25309;48.686;9.170;2023-03-01T09:13:37;20.73;;;15.40;;
39620;SDS011;25309;48.686;9.170;2023-03-01T09:16:05;25.07;;;18.27;;
39620;SDS011;25309;48.686;9.170;2023-03-01T09:18:33;20.53;;;15.77;;
39620;SDS011;25309;48.686;9.170;2023-03-01T09:21:01;19.60;;;14.57;;
39620;SDS011;25309;48.686;9.170;2023-03-01T09:23:33;17.10;;;14.23;;
39620;SDS011;25309;48.686;9.170;2023-03-01T09:26:02;16.97;;;13.87;;
39620;SDS011;25309;48.686;9.170;2023-03-01T09:28:29;17.97;;;14.00;;
39620;SDS011;25309;48.686;9.170;2023-03-01T09:30:58;18.13;;;13.87;;
39620;SDS011;25309;48.686;9.170;2023-03-01T09:33:26;16.47;;;13.47;;
39620;SDS011;25309;48.686;9.170;2023-03-01T09:35:55;17.30;;;13.50;;
39620;SDS011;25309;48.686;9.170;2023-03-01T09:38:23;19.93;;;14.40;;
39620;SDS011;25309;48.686;9.170;2023-03-01T09:40:52;16.57;;;13.27;;
39620;SDS011;25309;48.686;9.170;2023-03-01T09:43:21;16.03;;;13.97;;
39620;SDS011;25309;48.686;9.170;2023-03-01T09:45:53;17.20;;;14.33;;
39620;SDS011;25309;48.686;9.170;2023-03-01T09:48:24;19.67;;;15.20;;
39620;SDS011;25309;48.686;9.170;2023-03-01T09:50:54;16.63;;;14.03;;
39620;SDS011;25309;48.686;9.170;2023-03-01T09:53:23;17.87;;;13.67;;
39620;SDS011;25309;48.686;9.170;2023-03-01T09:55:58;19.97;;;14.93;;
39620;SDS011;25309;48.686;9.170;2023-03-01T09:58:29;16.13;;;13.70;;
39620;SDS011;25309;48.686;9.170;2023-03-01T10:01:10;17.07;;;14.13;;
39620;SDS011;25309;48.686;9.170;2023-03-01T10:03:55;19.13;;;14.43;;
39620;SDS011;25309;48.686;9.170;2023-03-01T10:06:31;15.80;;;14.00;;
39620;SDS011;25309;48.686;9.170;2023-03-01T10:09:02;17.33;;;13.93;;
39620;SDS011;25309;48.686;9.170;2023-03-01T10:11:34;16.43;;;13.80;;
39620;SDS011;25309;48.686;9.170;2023-03-01T10:14:05;16.90;;;14.40;;
39620;SDS011;25309;48.686;9.170;2023-03-01T10:16:43;17.47;;;14.53;;
39620;SDS011;25309;48.686;9.170;2023-03-01T10:19:17;15.60;;;13.13;;
39620;SDS011;25309;48.686;9.170;2023-03-01T10:21:49;17.07;;;14.40;;
39620;SDS011;25309;48.686;9.170;2023-03-01T10:24:18;16.77;;;13.87;;
39620;SDS011;25309;48.686;9.170;2023-03-01T10:26:50;17.77;;;14.40;;
39620;SDS011;25309;48.686;9.170;2023-03-01T10:29:22;16.43;;;13.20;;
39620;SDS011;25309;48.686;9.170;2023-03-01T10:31:52;16.20;;;13.63;;
39620;SDS011;25309;48.686;9.170;2023-03-01T10:34:27;17.93;;;14.40;;
39620;SDS011;25309;48.686;9.170;2023-03-01T10:36:55;20.40;;;14.33;;
39620;SDS011;25309;48.686;9.170;2023-03-01T10:39:25;16.07;;;13.80;;
39620;SDS011;25309;48.686;9.170;2023-03-01T10:41:54;16.17;;;13.17;;
39620;SDS011;25309;48.686;9.170;2023-03-01T10:44:42;17.37;;;14.40;;
39620;SDS011;25309;48.686;9.170;2023-03-01T10:47:15;18.90;;;14.07;;
39620;SDS011;25309;48.686;9.170;2023-03-01T10:49:52;18.20;;;13.60;;
39620;SDS011;25309;48.686;9.170;2023-03-01T10:52:25;17.67;;;13.67;;
39620;SDS011;25309;48.686;9.170;2023-03-01T10:55:00;16.23;;;13.97;;
39620;SDS011;25309;48.686;9.170;2023-03-01T10:57:31;16.13;;;13.73;;
39620;SDS011;25309;48.686;9.170;2023-03-01T11:00:18;16.97;;;13.77;;
39620;SDS011;25309;48.686;9.170;2023-03-01T11:02:49;16.27;;;14.20;;
39620;SDS011;25309;48.686;9.170;2023-03-01T11:05:29;16.97;;;13.97;;
39620;SDS011;25309;48.686;9.170;2023-03-01T11:07:59;19.30;;;14.27;;
39620;SDS011;25309;48.686;9.170;2023-03-01T11:10:29;17.80;;;13.93;;
39620;SDS011;25309;48.686;9.170;2023-03-01T11:13:07;15.93;;;13.20;;
39620;SDS011;25309;48.686;9.170;2023-03-01T11:15:40;16.83;;;12.93;;
39620;SDS011;25309;48.686;9.170;2023-03-01T11:18:17;17.20;;;13.83;;
39620;SDS011;25309;48.686;9.170;2023-03-01T11:20:55;15.07;;;12.77;;
39620;SDS011;25309;48.686;9.170;2023-03-01T11:23:24;17.43;;;13.80;;
39620;SDS011;25309;48.686;9.170;2023-03-01T11:25:54;18.90;;;14.50;;
39620;SDS011;25309;48.686;9.170;2023-03-01T11:28:23;15.23;;;13.47;;
39620;SDS011;25309;48.686;9.170;2023-03-01T11:30:55;14.63;;;13.03;;
39620;SDS011;25309;48.686;9.170;2023-03-01T11:33:34;16.27;;;14.03;;
39620;SDS011;25309;48.686;9.170;2023-03-01T11:36:13;16.63;;;13.10;;
39620;SDS011;25309;48.686;9.170;2023-03-01T11:38:55;16.13;;;13.17;;
39620;SDS011;25309;48.686;9.170;2023-03-01T11:41:23;15.67;;;12.87;;
39620;SDS011;25309;48.686;9.170;2023-03-01T11:43:56;16.53;;;13.47;;
39620;SDS011;25309;48.686;9.170;2023-03-01T11:49:37;15.80;;;14.00;;
39620;SDS011;25309;48.686;9.170;2023-03-01T11:52:21;15.83;;;13.03;;
39620;SDS011;25309;48.686;9.170;2023-03-01T11:54:59;15.53;;;13.50;;
39620;SDS011;25309;48.686;9.170;2023-03-01T11:57:43;16.00;;;13.37;;
39620;SDS011;25309;48.686;9.170;2023-03-01T12:00:30;15.17;;;13.53;;
39620;SDS011;25309;48.686;9.170;2023-03-01T12:03:22;15.87;;;13.20;;
39620;SDS011;25309;48.686;9.170;2023-03-01T12:05:58;16.47;;;13.63;;
39620;SDS011;25309;48.686;9.170;2023-03-01T12:08:38;17.50;;;13.80;;
39620;SDS011;25309;48.686;9.170;2023-03-01T12:11:12;18.97;;;14.70;;
39620;SDS011;25309;48.686;9.170;2023-03-01T12:13:56;15.90;;;14.17;;
39620;SDS011;25309;48.686;9.170;2023-03-01T12:16:40;17.07;;;13.77;;
39620;SDS011;25309;48.686;9.170;2023-03-01T12:19:39;16.47;;;13.60;;
39620;SDS011;25309;48.686;9.170;2023-03-01T12:22:28;16.70;;;14.10;;
39620;SDS011;25309;48.686;9.170;2023-03-01T12:27:58;15.70;;;13.10;;
39620;SDS011;25309;48.686;9.170;2023-03-01T12:30:45;17.30;;;13.40;;
39620;SDS011;25309;48.686;9.170;2023-03-01T12:33:22;15.67;;;13.27;;
39620;SDS011;25309;48.686;9.170;2023-03-01T12:36:02;15.83;;;13.30;;
39620;SDS011;25309;48.686;9.170;2023-03-01T12:38:49;14.53;;;12.87;;
39620;SDS011;25309;48.686;9.170;2023-03-01T12:41:35;14.90;;;12.17;;
39620;SDS011;25309;48.686;9.170;2023-03-01T12:44:26;14.83;;;12.20;;
39620;SDS011;25309;48.686;9.170;2023-03-01T12:47:12;14.17;;;11.60;;
39620;SDS011;25309;48.686;9.170;2023-03-01T12:49:48;16.17;;;12.37;;
39620;SDS011;25309;48.686;9.170;2023-03-01T12:52:19;14.00;;;12.30;;
39620;SDS011;25309;48.686;9.170;2023-03-01T12:54:50;14.83;;;12.23;;
39620;SDS011;25309;48.686;9.170;2023-03-01T12:57:23;15.27;;;12.57;;
39620;SDS011;25309;48.686;9.170;2023-03-01T13:00:06;14.83;;;12.47;;
39620;SDS011;25309;48.686;9.170;2023-03-01T13:02:45;13.87;;;11.43;;
39620;SDS011;25309;48.686;9.170;2023-03-01T13:05:19;15.13;;;12.70;;
39620;SDS011;25309;48.686;9.170;2023-03-01T13:07:55;15.53;;;12.40;;
39620;SDS011;25309;48.686;9.170;2023-03-01T13:10:30;14.87;;;12.07;;
39620;SDS011;25309;48.686;9.170;2023-03-01T13:13:10;13.23;;;11.50;;
39620;SDS011;25309;48.686;9.170;2023-03-01T13:15:40;15.20;;;12.30;;
39620;SDS011;25309;48.686;9.170;2023-03-01T13:20:55;14.77;;;11.97;;
39620;SDS011;25309;48.686;9.170;2023-03-01T13:23:25;15.50;;;12.43;;
39620;SDS011;25309;48.686;9.170;2023-03-01T13:26:04;14.80;;;11.87;;
39620;SDS011;25309;48.686;9.170;2023-03-01T13:34:39;14.27;;;11.60;;
39620;SDS011;25309;48.686;9.170;2023-03-01T13:37:09;15.43;;;11.83;;
39620;SDS011;25309;48.686;9.170;2023-03-01T13:39:39;15.67;;;12.20;;
39620;SDS011;25309;48.686;9.170;2023-03-01T13:45:21;15.17;;;11.23;;
39620;SDS011;25309;48.686;9.170;2023-03-01T13:47:53;13.70;;;11.23;;
39620;SDS011;25309;48.686;9.170;2023-03-01T13:50:25;13.07;;;11.60;;
39620;SDS011;25309;48.686;9.170;2023-03-01T13:52:55;12.83;;;11.13;;
39620;SDS011;25309;48.686;9.170;2023-03-01T13:55:27;15.87;;;11.97;;
39620;SDS011;25309;48.686;9.170;2023-03-01T13:58:01;14.73;;;11.70;;
39620;SDS011;25309;48.686;9.170;2023-03-01T14:00:37;13.10;;;11.17;;
39620;SDS011;25309;48.686;9.170;2023-03-01T14:03:08;13.43;;;10.97;;
39620;SDS011;25309;48.686;9.170;2023-03-01T14:05:38;12.97;;;11.00;;
39620;SDS011;25309;48.686;9.170;2023-03-01T14:08:18;12.50;;;10.87;;
39620;SDS011;25309;48.686;9.170;2023-03-01T14:10:58;14.43;;;11.20;;
39620;SDS011;25309;48.686;9.170;2023-03-01T14:13:37;14.47;;;10.53;;
39620;SDS011;25309;48.686;9.170;2023-03-01T14:16:20;12.70;;;10.93;;
39620;SDS011;25309;48.686;9.170;2023-03-01T14:18:58;12.57;;;10.33;;
39620;SDS011;25309;48.686;9.170;2023-03-01T14:21:32;13.07;;;10.53;;
39620;SDS011;25309;48.686;9.170;2023-03-01T14:23:59;15.43;;;10.70;;
39620;SDS011;25309;48.686;9.170;2023-03-01T14:26:26;14.10;;;11.40;;
39620;SDS011;25309;48.686;9.170;2023-03-01T14:28:53;15.70;;;12.47;;
39620;SDS011;25309;48.686;9.170;2023-03-01T14:31:34;14.93;;;12.20;;
39620;SDS011;25309;48.686;9.170;2023-03-01T14:34:19;17.73;;;13.63;;
39620;SDS011;25309;48.686;9.170;2023-03-01T14:36:47;18.07;;;13.47;;
39620;SDS011;25309;48.686;9.170;2023-03-01T14:39:18;18.13;;;13.33;;
39620;SDS011;25309;48.686;9.170;2023-03-01T14:41:49;15.77;;;13.37;;
39620;SDS011;25309;48.686;9.170;2023-03-01T14:44:19;16.23;;;13.97;;
39620;SDS011;25309;48.686;9.170;2023-03-01T14:46:52;17.93;;;13.90;;
39620;SDS011;25309;48.686;9.170;2023-03-01T14:49:22;17.00;;;13.90;;
39620;SDS011;25309;48.686;9.170;2023-03-01T14:51:52;15.63;;;13.30;;
39620;SDS011;25309;48.686;9.170;2023-03-01T14:54:23;15.03;;;12.63;;
39620;SDS011;25309;48.686;9.170;2023-03-01T14:56:53;15.27;;;13.07;;
39620;SDS011;25309;48.686;9.170;2023-03-01T14:59:25;16.03;;;13.33;;
39620;SDS011;25309;48.686;9.170;2023-03-01T15:01:55;14.37;;;12.20;;